sensor_id;sensor_type;location;lat;lon;timestamp;P1;durP1;ratioP1;P2;durP2;ratioP2
70313;SDS011;57725;47.526;18.986;2023-04-03T00:00:12;66.28;;;42.90;;
70313;SDS011;57725;47.526;18.986;2023-04-03T00:02:47;62.92;;;40.45;;
70313;SDS011;57725;47.526;18.986;2023-04-03T00:05:13;67.25;;;43.70;;
70313;SDS011;57725;47.526;18.986;2023-04-03T00:07:47;61.25;;;40.75;;
70313;SDS011;57725;47.526;18.986;2023-04-03T00:10:14;61.33;;;39.38;;
70313;SDS011;57725;47.526;18.986;2023-04-03T00:12:42;62.88;;;40.58;;
70313;SDS011;57725;47.526;18.986;2023-04-03T00:15:08;54.25;;;35.58;;
70313;SDS011;57725;47.526;18.986;2023-04-03T00:17:34;59.60;;;39.00;;
70313;SDS011;57725;47.526;18.986;2023-04-03T00:20:02;56.63;;;37.13;;
70313;SDS011;57725;47.526;18.986;2023-04-03T00:22:29;57.42;;;35.90;;
70313;SDS011;57725;47.526;18.986;2023-04-03T00:24:55;58.78;;;36.58;;
70313;SDS011;57725;47.526;18.986;2023-04-03T00:27:23;57.75;;;36.50;;
70313;SDS011;57725;47.526;18.986;2023-04-03T00:29:48;55.40;;;35.92;;
70313;SDS011;57725;47.526;18.986;2023-04-03T00:32:16;54.90;;;34.42;;
70313;SDS011;57725;47.526;18.986;2023-04-03T00:34:46;54.03;;;34.65;;
70313;SDS011;57725;47.526;18.986;2023-04-03T00:37:14;49.92;;;32.13;;
70313;SDS011;57725;47.526;18.986;2023-04-03T00:39:39;46.60;;;31.38;;
70313;SDS011;57725;47.526;18.986;2023-04-03T00:42:05;50.28;;;33.05;;
70313;SDS011;57725;47.526;18.986;2023-04-03T00:47:00;48.15;;;32.67;;
70313;SDS011;57725;47.526;18.986;2023-04-03T00:49:29;44.78;;;29.30;;
70313;SDS011;57725;47.526;18.986;2023-04-03T00:51:57;45.30;;;30.08;;
70313;SDS011;57725;47.526;18.986;2023-04-03T00:54:27;43.78;;;28.65;;
70313;SDS011;57725;47.526;18.986;2023-04-03T00:56:53;48.03;;;30.75;;
70313;SDS011;57725;47.526;18.986;2023-04-03T00:59:22;45.50;;;30.27;;
70313;SDS011;57725;47.526;18.986;2023-04-03T01:01:54;45.08;;;28.58;;
70313;SDS011;57725;47.526;18.986;2023-04-03T01:04:29;48.15;;;29.95;;
70313;SDS011;57725;47.526;18.986;2023-04-03T01:07:22;39.58;;;26.27;;
70313;SDS011;57725;47.526;18.986;2023-04-03T01:09:52;38.83;;;26.33;;
70313;SDS011;57725;47.526;18.986;2023-04-03T01:12:22;33.65;;;23.52;;
70313;SDS011;57725;47.526;18.986;2023-04-03T01:14:55;40.10;;;26.48;;
70313;SDS011;57725;47.526;18.986;2023-04-03T01:25:14;34.42;;;22.58;;
70313;SDS011;57725;47.526;18.986;2023-04-03T01:27:39;39.42;;;24.63;;
70313;SDS011;57725;47.526;18.986;2023-04-03T01:30:05;33.58;;;21.88;;
70313;SDS011;57725;47.526;18.986;2023-04-03T01:32:31;34.70;;;23.02;;
70313;SDS011;57725;47.526;18.986;2023-04-03T01:34:57;34.17;;;22.33;;
70313;SDS011;57725;47.526;18.986;2023-04-03T01:37:22;34.47;;;22.85;;
70313;SDS011;57725;47.526;18.986;2023-04-03T01:39:47;33.00;;;21.75;;
70313;SDS011;57725;47.526;18.986;2023-04-03T01:42:13;31.35;;;21.00;;
70313;SDS011;57725;47.526;18.986;2023-04-03T01:44:41;31.20;;;20.90;;
70313;SDS011;57725;47.526;18.986;2023-04-03T01:47:06;29.77;;;21.02;;
70313;SDS011;57725;47.526;18.986;2023-04-03T01:49:34;32.35;;;21.60;;
70313;SDS011;57725;47.526;18.986;2023-04-03T01:52:00;29.77;;;20.40;;
70313;SDS011;57725;47.526;18.986;2023-04-03T01:54:25;30.63;;;19.70;;
70313;SDS011;57725;47.526;18.986;2023-04-03T01:56:55;30.38;;;20.38;;
70313;SDS011;57725;47.526;18.986;2023-04-03T01:59:21;29.17;;;18.65;;
70313;SDS011;57725;47.526;18.986;2023-04-03T02:01:46;28.80;;;19.90;;
70313;SDS011;57725;47.526;18.986;2023-04-03T02:04:12;25.50;;;18.13;;
70313;SDS011;57725;47.526;18.986;2023-04-03T02:06:37;26.90;;;18.17;;
70313;SDS011;57725;47.526;18.986;2023-04-03T02:09:05;28.15;;;18.23;;
70313;SDS011;57725;47.526;18.986;2023-04-03T02:11:31;24.92;;;17.67;;
70313;SDS011;57725;47.526;18.986;2023-04-03T02:14:00;25.17;;;17.17;;
70313;SDS011;57725;47.526;18.986;2023-04-03T02:16:29;25.42;;;17.02;;
70313;SDS011;57725;47.526;18.986;2023-04-03T02:18:55;24.90;;;16.95;;
70313;SDS011;57725;47.526;18.986;2023-04-03T02:21:21;24.48;;;16.65;;
70313;SDS011;57725;47.526;18.986;2023-04-03T02:23:46;22.85;;;16.17;;
70313;SDS011;57725;47.526;18.986;2023-04-03T02:26:13;22.73;;;15.43;;
70313;SDS011;57725;47.526;18.986;2023-04-03T02:28:42;22.92;;;15.95;;
70313;SDS011;57725;47.526;18.986;2023-04-03T02:31:08;24.70;;;15.82;;
70313;SDS011;57725;47.526;18.986;2023-04-03T02:33:38;23.08;;;15.70;;
70313;SDS011;57725;47.526;18.986;2023-04-03T02:36:04;23.65;;;16.58;;
70313;SDS011;57725;47.526;18.986;2023-04-03T02:38:33;20.02;;;13.63;;
70313;SDS011;57725;47.526;18.986;2023-04-03T02:41:04;20.40;;;14.50;;
70313;SDS011;57725;47.526;18.986;2023-04-03T02:43:31;21.92;;;15.63;;
70313;SDS011;57725;47.526;18.986;2023-04-03T02:45:57;19.20;;;13.43;;
70313;SDS011;57725;47.526;18.986;2023-04-03T02:48:27;20.90;;;14.18;;
70313;SDS011;57725;47.526;18.986;2023-04-03T02:50:53;20.58;;;13.90;;
70313;SDS011;57725;47.526;18.986;2023-04-03T02:53:21;19.02;;;14.15;;
70313;SDS011;57725;47.526;18.986;2023-04-03T02:55:49;19.50;;;14.07;;
70313;SDS011;57725;47.526;18.986;2023-04-03T02:58:22;19.08;;;13.77;;
70313;SDS011;57725;47.526;18.986;2023-04-03T03:00:50;18.17;;;13.10;;
70313;SDS011;57725;47.526;18.986;2023-04-03T03:03:17;19.90;;;14.02;;
70313;SDS011;57725;47.526;18.986;2023-04-03T03:05:43;17.52;;;12.25;;
70313;SDS011;57725;47.526;18.986;2023-04-03T03:08:08;18.48;;;12.63;;
70313;SDS011;57725;47.526;18.986;2023-04-03T03:10:36;17.20;;;12.18;;
70313;SDS011;57725;47.526;18.986;2023-04-03T03:13:04;16.42;;;12.13;;
70313;SDS011;57725;47.526;18.986;2023-04-03T03:15:32;17.45;;;11.98;;
70313;SDS011;57725;47.526;18.986;2023-04-03T03:18:00;17.52;;;12.43;;
70313;SDS011;57725;47.526;18.986;2023-04-03T03:20:25;16.08;;;11.82;;
70313;SDS011;57725;47.526;18.986;2023-04-03T03:22:50;14.38;;;10.57;;
70313;SDS011;57725;47.526;18.986;2023-04-03T03:25:16;18.30;;;12.00;;
70313;SDS011;57725;47.526;18.986;2023-04-03T03:27:43;17.05;;;11.93;;
70313;SDS011;57725;47.526;18.986;2023-04-03T03:30:11;14.25;;;10.27;;
70313;SDS011;57725;47.526;18.986;2023-04-03T03:32:37;15.80;;;11.50;;
70313;SDS011;57725;47.526;18.986;2023-04-03T03:35:02;17.35;;;11.23;;
70313;SDS011;57725;47.526;18.986;2023-04-03T03:37:30;15.05;;;10.38;;
70313;SDS011;57725;47.526;18.986;2023-04-03T03:39:55;14.13;;;9.80;;
70313;SDS011;57725;47.526;18.986;2023-04-03T03:42:21;12.88;;;9.70;;
70313;SDS011;57725;47.526;18.986;2023-04-03T03:44:47;15.20;;;10.50;;
70313;SDS011;57725;47.526;18.986;2023-04-03T03:47:12;13.95;;;9.73;;
70313;SDS011;57725;47.526;18.986;2023-04-03T03:49:38;14.55;;;10.40;;
70313;SDS011;57725;47.526;18.986;2023-04-03T03:52:03;13.70;;;9.90;;
70313;SDS011;57725;47.526;18.986;2023-04-03T03:54:33;12.85;;;9.40;;
70313;SDS011;57725;47.526;18.986;2023-04-03T03:56:59;13.27;;;9.20;;
70313;SDS011;57725;47.526;18.986;2023-04-03T03:59:27;12.57;;;9.50;;
70313;SDS011;57725;47.526;18.986;2023-04-03T04:01:53;14.43;;;10.13;;
70313;SDS011;57725;47.526;18.986;2023-04-03T04:04:18;12.77;;;9.23;;
70313;SDS011;57725;47.526;18.986;2023-04-03T04:06:49;13.45;;;9.40;;
70313;SDS011;57725;47.526;18.986;2023-04-03T04:09:16;11.45;;;8.85;;
70313;SDS011;57725;47.526;18.986;2023-04-03T04:11:42;11.20;;;8.75;;
70313;SDS011;57725;47.526;18.986;2023-04-03T04:14:07;11.52;;;7.95;;
70313;SDS011;57725;47.526;18.986;2023-04-03T04:16:35;11.13;;;8.45;;
70313;SDS011;57725;47.526;18.986;2023-04-03T04:19:00;12.70;;;8.68;;
70313;SDS011;57725;47.526;18.986;2023-04-03T04:21:26;11.75;;;8.88;;
70313;SDS011;57725;47.526;18.986;2023-04-03T04:23:56;11.25;;;8.25;;
70313;SDS011;57725;47.526;18.986;2023-04-03T04:26:21;12.48;;;8.88;;
70313;SDS011;57725;47.526;18.986;2023-04-03T04:28:46;10.38;;;7.63;;
70313;SDS011;57725;47.526;18.986;2023-04-03T04:31:14;11.82;;;8.05;;
70313;SDS011;57725;47.526;18.986;2023-04-03T04:33:40;10.85;;;7.82;;
70313;SDS011;57725;47.526;18.986;2023-04-03T04:36:07;9.73;;;7.63;;
70313;SDS011;57725;47.526;18.986;2023-04-03T04:38:33;11.35;;;8.43;;
70313;SDS011;57725;47.526;18.986;2023-04-03T04:41:00;10.18;;;8.10;;
70313;SDS011;57725;47.526;18.986;2023-04-03T04:43:26;10.40;;;7.82;;
70313;SDS011;57725;47.526;18.986;2023-04-03T04:46:04;10.85;;;7.65;;
70313;SDS011;57725;47.526;18.986;2023-04-03T04:48:32;9.27;;;7.53;;
70313;SDS011;57725;47.526;18.986;2023-04-03T04:51:00;10.40;;;7.60;;
70313;SDS011;57725;47.526;18.986;2023-04-03T04:53:25;9.95;;;7.78;;
70313;SDS011;57725;47.526;18.986;2023-04-03T04:55:53;9.43;;;7.75;;
70313;SDS011;57725;47.526;18.986;2023-04-03T04:58:21;8.68;;;6.97;;
70313;SDS011;57725;47.526;18.986;2023-04-03T05:00:46;9.25;;;7.13;;
70313;SDS011;57725;47.526;18.986;2023-04-03T05:03:12;9.80;;;7.40;;
70313;SDS011;57725;47.526;18.986;2023-04-03T05:05:38;8.73;;;7.05;;
70313;SDS011;57725;47.526;18.986;2023-04-03T05:08:03;8.50;;;7.00;;
70313;SDS011;57725;47.526;18.986;2023-04-03T05:10:29;9.20;;;7.43;;
70313;SDS011;57725;47.526;18.986;2023-04-03T05:12:58;9.02;;;7.32;;
70313;SDS011;57725;47.526;18.986;2023-04-03T05:15:24;9.25;;;7.30;;
70313;SDS011;57725;47.526;18.986;2023-04-03T05:17:49;10.50;;;7.30;;
70313;SDS011;57725;47.526;18.986;2023-04-03T05:20:18;8.57;;;6.78;;
70313;SDS011;57725;47.526;18.986;2023-04-03T05:22:43;7.75;;;6.65;;
70313;SDS011;57725;47.526;18.986;2023-04-03T05:25:09;9.63;;;6.95;;
70313;SDS011;57725;47.526;18.986;2023-04-03T05:27:37;7.97;;;6.82;;
70313;SDS011;57725;47.526;18.986;2023-04-03T05:30:02;10.25;;;6.97;;
70313;SDS011;57725;47.526;18.986;2023-04-03T05:32:31;8.60;;;6.63;;
70313;SDS011;57725;47.526;18.986;2023-04-03T05:34:56;7.93;;;6.45;;
70313;SDS011;57725;47.526;18.986;2023-04-03T05:37:21;10.77;;;7.32;;
70313;SDS011;57725;47.526;18.986;2023-04-03T05:39:51;9.30;;;5.82;;
70313;SDS011;57725;47.526;18.986;2023-04-03T05:42:17;8.93;;;6.90;;
70313;SDS011;57725;47.526;18.986;2023-04-03T05:44:44;7.05;;;5.82;;
70313;SDS011;57725;47.526;18.986;2023-04-03T05:47:12;8.45;;;6.55;;
70313;SDS011;57725;47.526;18.986;2023-04-03T05:49:40;9.05;;;6.97;;
70313;SDS011;57725;47.526;18.986;2023-04-03T05:52:26;8.82;;;6.82;;
70313;SDS011;57725;47.526;18.986;2023-04-03T05:54:53;8.48;;;6.85;;
70313;SDS011;57725;47.526;18.986;2023-04-03T05:57:22;7.45;;;5.97;;
70313;SDS011;57725;47.526;18.986;2023-04-03T05:59:53;7.55;;;6.53;;
70313;SDS011;57725;47.526;18.986;2023-04-03T06:02:19;7.80;;;6.28;;
70313;SDS011;57725;47.526;18.986;2023-04-03T06:04:48;7.53;;;5.97;;
70313;SDS011;57725;47.526;18.986;2023-04-03T06:07:17;7.65;;;6.28;;
70313;SDS011;57725;47.526;18.986;2023-04-03T06:09:46;7.68;;;6.32;;
70313;SDS011;57725;47.526;18.986;2023-04-03T06:12:12;9.23;;;5.70;;
70313;SDS011;57725;47.526;18.986;2023-04-03T06:14:38;6.95;;;5.72;;
70313;SDS011;57725;47.526;18.986;2023-04-03T06:17:03;7.70;;;6.15;;
70313;SDS011;57725;47.526;18.986;2023-04-03T06:19:29;6.68;;;5.43;;
70313;SDS011;57725;47.526;18.986;2023-04-03T06:21:57;7.70;;;5.68;;
70313;SDS011;57725;47.526;18.986;2023-04-03T06:24:25;7.63;;;5.95;;
70313;SDS011;57725;47.526;18.986;2023-04-03T06:26:51;8.35;;;5.97;;
70313;SDS011;57725;47.526;18.986;2023-04-03T06:29:19;6.40;;;5.50;;
70313;SDS011;57725;47.526;18.986;2023-04-03T06:31:48;7.28;;;5.70;;
70313;SDS011;57725;47.526;18.986;2023-04-03T06:34:16;7.00;;;5.70;;
70313;SDS011;57725;47.526;18.986;2023-04-03T06:36:43;7.80;;;6.07;;
70313;SDS011;57725;47.526;18.986;2023-04-03T06:39:16;6.60;;;5.00;;
70313;SDS011;57725;47.526;18.986;2023-04-03T06:41:45;7.15;;;5.47;;
70313;SDS011;57725;47.526;18.986;2023-04-03T06:44:10;8.63;;;5.32;;
70313;SDS011;57725;47.526;18.986;2023-04-03T06:46:37;6.65;;;5.57;;
70313;SDS011;57725;47.526;18.986;2023-04-03T06:49:04;7.68;;;5.28;;
70313;SDS011;57725;47.526;18.986;2023-04-03T06:51:32;6.38;;;4.95;;
70313;SDS011;57725;47.526;18.986;2023-04-03T06:53:59;8.30;;;5.68;;
70313;SDS011;57725;47.526;18.986;2023-04-03T06:56:24;6.13;;;5.45;;
70313;SDS011;57725;47.526;18.986;2023-04-03T06:58:53;6.43;;;5.07;;
70313;SDS011;57725;47.526;18.986;2023-04-03T07:01:26;6.00;;;4.75;;
70313;SDS011;57725;47.526;18.986;2023-04-03T07:03:55;6.47;;;5.63;;
70313;SDS011;57725;47.526;18.986;2023-04-03T07:06:21;6.35;;;4.75;;
70313;SDS011;57725;47.526;18.986;2023-04-03T07:08:54;6.57;;;5.20;;
70313;SDS011;57725;47.526;18.986;2023-04-03T07:11:23;7.63;;;6.28;;
70313;SDS011;57725;47.526;18.986;2023-04-03T07:13:49;6.43;;;5.10;;
70313;SDS011;57725;47.526;18.986;2023-04-03T07:16:15;6.53;;;5.32;;
70313;SDS011;57725;47.526;18.986;2023-04-03T07:18:40;6.57;;;5.13;;
70313;SDS011;57725;47.526;18.986;2023-04-03T07:21:06;6.65;;;4.85;;
70313;SDS011;57725;47.526;18.986;2023-04-03T07:23:32;6.75;;;4.95;;
70313;SDS011;57725;47.526;18.986;2023-04-03T07:25:58;6.82;;;5.43;;
70313;SDS011;57725;47.526;18.986;2023-04-03T07:28:26;6.65;;;5.35;;
70313;SDS011;57725;47.526;18.986;2023-04-03T07:31:04;7.60;;;5.45;;
70313;SDS011;57725;47.526;18.986;2023-04-03T07:33:33;6.28;;;4.93;;
70313;SDS011;57725;47.526;18.986;2023-04-03T07:35:59;6.40;;;4.60;;
70313;SDS011;57725;47.526;18.986;2023-04-03T07:38:26;7.28;;;5.07;;
70313;SDS011;57725;47.526;18.986;2023-04-03T07:40:54;5.85;;;4.93;;
70313;SDS011;57725;47.526;18.986;2023-04-03T07:43:22;5.63;;;4.80;;
70313;SDS011;57725;47.526;18.986;2023-04-03T07:45:51;5.78;;;4.35;;
70313;SDS011;57725;47.526;18.986;2023-04-03T07:48:19;5.80;;;4.90;;
70313;SDS011;57725;47.526;18.986;2023-04-03T07:50:46;7.68;;;4.97;;
70313;SDS011;57725;47.526;18.986;2023-04-03T07:53:14;5.50;;;4.57;;
70313;SDS011;57725;47.526;18.986;2023-04-03T07:55:40;5.47;;;4.53;;
70313;SDS011;57725;47.526;18.986;2023-04-03T07:58:12;5.95;;;4.38;;
70313;SDS011;57725;47.526;18.986;2023-04-03T08:00:39;5.38;;;4.53;;
70313;SDS011;57725;47.526;18.986;2023-04-03T08:03:09;6.05;;;4.90;;
70313;SDS011;57725;47.526;18.986;2023-04-03T08:05:39;5.32;;;4.03;;
70313;SDS011;57725;47.526;18.986;2023-04-03T08:08:06;4.65;;;4.05;;
70313;SDS011;57725;47.526;18.986;2023-04-03T08:10:37;6.50;;;4.90;;
70313;SDS011;57725;47.526;18.986;2023-04-03T08:13:05;6.07;;;4.70;;
70313;SDS011;57725;47.526;18.986;2023-04-03T08:15:33;6.05;;;4.63;;
70313;SDS011;57725;47.526;18.986;2023-04-03T08:17:59;5.75;;;4.50;;
70313;SDS011;57725;47.526;18.986;2023-04-03T08:20:25;6.88;;;4.68;;
70313;SDS011;57725;47.526;18.986;2023-04-03T08:22:51;6.35;;;4.88;;
70313;SDS011;57725;47.526;18.986;2023-04-03T08:25:16;6.65;;;4.95;;
70313;SDS011;57725;47.526;18.986;2023-04-03T08:27:42;6.85;;;4.97;;
70313;SDS011;57725;47.526;18.986;2023-04-03T08:30:13;5.68;;;4.55;;
70313;SDS011;57725;47.526;18.986;2023-04-03T08:32:41;5.30;;;4.15;;
70313;SDS011;57725;47.526;18.986;2023-04-03T08:35:08;6.43;;;4.63;;
70313;SDS011;57725;47.526;18.986;2023-04-03T08:37:37;5.95;;;4.45;;
70313;SDS011;57725;47.526;18.986;2023-04-03T08:40:04;5.72;;;4.47;;
70313;SDS011;57725;47.526;18.986;2023-04-03T08:42:59;5.68;;;4.32;;
70313;SDS011;57725;47.526;18.986;2023-04-03T08:45:51;5.18;;;4.05;;
70313;SDS011;57725;47.526;18.986;2023-04-03T08:48:24;6.15;;;4.47;;
70313;SDS011;57725;47.526;18.986;2023-04-03T08:50:58;6.22;;;4.20;;
70313;SDS011;57725;47.526;18.986;2023-04-03T08:53:26;6.13;;;4.15;;
70313;SDS011;57725;47.526;18.986;2023-04-03T08:55:57;6.30;;;4.57;;
70313;SDS011;57725;47.526;18.986;2023-04-03T08:58:29;5.50;;;4.30;;
70313;SDS011;57725;47.526;18.986;2023-04-03T09:01:02;5.18;;;3.80;;
70313;SDS011;57725;47.526;18.986;2023-04-03T09:03:38;6.00;;;4.07;;
70313;SDS011;57725;47.526;18.986;2023-04-03T09:06:20;5.03;;;3.78;;
70313;SDS011;57725;47.526;18.986;2023-04-03T09:09:02;5.53;;;4.10;;
70313;SDS011;57725;47.526;18.986;2023-04-03T09:22:43;5.07;;;3.45;;
70313;SDS011;57725;47.526;18.986;2023-04-03T09:27:41;4.90;;;3.88;;
70313;SDS011;57725;47.526;18.986;2023-04-03T09:30:14;5.95;;;4.00;;
70313;SDS011;57725;47.526;18.986;2023-04-03T09:32:43;4.88;;;3.47;;
70313;SDS011;57725;47.526;18.986;2023-04-03T09:43:51;4.78;;;3.75;;
70313;SDS011;57725;47.526;18.986;2023-04-03T09:46:18;4.43;;;3.50;;
70313;SDS011;57725;47.526;18.986;2023-04-03T09:49:01;4.63;;;3.25;;
70313;SDS011;57725;47.526;18.986;2023-04-03T09:51:28;3.90;;;3.38;;
70313;SDS011;57725;47.526;18.986;2023-04-03T09:53:59;4.38;;;3.60;;
70313;SDS011;57725;47.526;18.986;2023-04-03T09:56:30;3.95;;;3.05;;
70313;SDS011;57725;47.526;18.986;2023-04-03T10:01:32;3.78;;;2.88;;
70313;SDS011;57725;47.526;18.986;2023-04-03T10:04:12;5.55;;;3.95;;
70313;SDS011;57725;47.526;18.986;2023-04-03T10:06:45;3.50;;;2.70;;
70313;SDS011;57725;47.526;18.986;2023-04-03T10:09:28;4.05;;;2.85;;
70313;SDS011;57725;47.526;18.986;2023-04-03T10:12:04;3.55;;;2.78;;
70313;SDS011;57725;47.526;18.986;2023-04-03T10:14:54;3.05;;;2.70;;
70313;SDS011;57725;47.526;18.986;2023-04-03T10:20:31;4.57;;;3.20;;
70313;SDS011;57725;47.526;18.986;2023-04-03T10:28:35;4.32;;;3.17;;
70313;SDS011;57725;47.526;18.986;2023-04-03T10:45:24;4.03;;;2.45;;
70313;SDS011;57725;47.526;18.986;2023-04-03T10:58:45;4.00;;;2.50;;
70313;SDS011;57725;47.526;18.986;2023-04-03T11:01:24;3.30;;;2.55;;
70313;SDS011;57725;47.526;18.986;2023-04-03T11:03:58;3.22;;;2.60;;
70313;SDS011;57725;47.526;18.986;2023-04-03T11:06:33;4.00;;;2.70;;
70313;SDS011;57725;47.526;18.986;2023-04-03T11:09:18;3.15;;;2.30;;
70313;SDS011;57725;47.526;18.986;2023-04-03T11:11:51;3.60;;;2.70;;
70313;SDS011;57725;47.526;18.986;2023-04-03T11:20:09;3.05;;;2.58;;
70313;SDS011;57725;47.526;18.986;2023-04-03T11:22:42;2.92;;;2.10;;
70313;SDS011;57725;47.526;18.986;2023-04-03T11:27:48;3.08;;;2.42;;
70313;SDS011;57725;47.526;18.986;2023-04-03T11:35:48;3.78;;;2.70;;
70313;SDS011;57725;47.526;18.986;2023-04-03T11:38:21;2.67;;;2.30;;
70313;SDS011;57725;47.526;18.986;2023-04-03T11:40:51;3.95;;;2.60;;
70313;SDS011;57725;47.526;18.986;2023-04-03T11:43:23;2.78;;;1.98;;
70313;SDS011;57725;47.526;18.986;2023-04-03T11:50:53;2.72;;;2.40;;
70313;SDS011;57725;47.526;18.986;2023-04-03T11:53:30;4.15;;;2.05;;
70313;SDS011;57725;47.526;18.986;2023-04-03T12:04:24;3.00;;;2.15;;
70313;SDS011;57725;47.526;18.986;2023-04-03T12:09:28;2.75;;;1.80;;
70313;SDS011;57725;47.526;18.986;2023-04-03T12:12:20;3.47;;;2.78;;
70313;SDS011;57725;47.526;18.986;2023-04-03T12:15:20;2.20;;;1.77;;
70313;SDS011;57725;47.526;18.986;2023-04-03T12:17:51;3.10;;;1.92;;
70313;SDS011;57725;47.526;18.986;2023-04-03T12:25:49;2.33;;;1.77;;
70313;SDS011;57725;47.526;18.986;2023-04-03T12:28:24;3.72;;;1.75;;
70313;SDS011;57725;47.526;18.986;2023-04-03T12:30:50;2.40;;;2.13;;
70313;SDS011;57725;47.526;18.986;2023-04-03T12:36:02;2.65;;;2.17;;
70313;SDS011;57725;47.526;18.986;2023-04-03T12:46:52;2.13;;;1.77;;
70313;SDS011;57725;47.526;18.986;2023-04-03T12:49:33;2.00;;;1.50;;
70313;SDS011;57725;47.526;18.986;2023-04-03T12:52:39;2.20;;;1.60;;
70313;SDS011;57725;47.526;18.986;2023-04-03T12:55:04;2.38;;;2.00;;
70313;SDS011;57725;47.526;18.986;2023-04-03T12:57:38;2.58;;;1.77;;
70313;SDS011;57725;47.526;18.986;2023-04-03T13:02:55;2.60;;;1.63;;
70313;SDS011;57725;47.526;18.986;2023-04-03T13:05:21;1.92;;;1.73;;
70313;SDS011;57725;47.526;18.986;2023-04-03T13:08:21;2.47;;;1.42;;
70313;SDS011;57725;47.526;18.986;2023-04-03T13:11:01;3.05;;;2.17;;
70313;SDS011;57725;47.526;18.986;2023-04-03T13:13:30;2.00;;;1.42;;
70313;SDS011;57725;47.526;18.986;2023-04-03T13:15:56;2.30;;;1.80;;
70313;SDS011;57725;47.526;18.986;2023-04-03T13:18:27;2.92;;;1.73;;
70313;SDS011;57725;47.526;18.986;2023-04-03T13:21:15;1.95;;;1.50;;
70313;SDS011;57725;47.526;18.986;2023-04-03T13:23:45;2.33;;;1.52;;
70313;SDS011;57725;47.526;18.986;2023-04-03T13:26:16;2.40;;;1.60;;
70313;SDS011;57725;47.526;18.986;2023-04-03T13:28:46;2.83;;;1.98;;
70313;SDS011;57725;47.526;18.986;2023-04-03T13:33:39;2.40;;;1.50;;
70313;SDS011;57725;47.526;18.986;2023-04-03T13:36:19;1.98;;;1.55;;
70313;SDS011;57725;47.526;18.986;2023-04-03T13:38:59;1.55;;;1.27;;
70313;SDS011;57725;47.526;18.986;2023-04-03T13:41:32;2.10;;;1.45;;
70313;SDS011;57725;47.526;18.986;2023-04-03T13:44:14;2.20;;;1.73;;
70313;SDS011;57725;47.526;18.986;2023-04-03T13:46:54;2.50;;;1.70;;
70313;SDS011;57725;47.526;18.986;2023-04-03T13:49:21;2.00;;;1.55;;
70313;SDS011;57725;47.526;18.986;2023-04-03T13:58:30;1.85;;;1.40;;
70313;SDS011;57725;47.526;18.986;2023-04-03T14:01:10;2.42;;;1.35;;
70313;SDS011;57725;47.526;18.986;2023-04-03T14:06:08;2.67;;;1.53;;
70313;SDS011;57725;47.526;18.986;2023-04-03T14:08:36;2.53;;;1.50;;
70313;SDS011;57725;47.526;18.986;2023-04-03T14:11:02;2.20;;;1.40;;
70313;SDS011;57725;47.526;18.986;2023-04-03T14:13:30;1.70;;;1.25;;
70313;SDS011;57725;47.526;18.986;2023-04-03T14:15:59;2.13;;;1.30;;
70313;SDS011;57725;47.526;18.986;2023-04-03T14:18:33;1.52;;;1.20;;
70313;SDS011;57725;47.526;18.986;2023-04-03T14:20:59;1.60;;;1.23;;
70313;SDS011;57725;47.526;18.986;2023-04-03T14:23:24;1.80;;;1.45;;
70313;SDS011;57725;47.526;18.986;2023-04-03T14:25:54;2.15;;;1.30;;
70313;SDS011;57725;47.526;18.986;2023-04-03T14:28:20;1.70;;;1.13;;
70313;SDS011;57725;47.526;18.986;2023-04-03T14:30:57;1.98;;;1.10;;
70313;SDS011;57725;47.526;18.986;2023-04-03T14:33:30;2.25;;;1.35;;
70313;SDS011;57725;47.526;18.986;2023-04-03T14:36:00;1.58;;;1.20;;
70313;SDS011;57725;47.526;18.986;2023-04-03T14:38:28;1.80;;;1.20;;
70313;SDS011;57725;47.526;18.986;2023-04-03T14:40:58;1.85;;;1.10;;
70313;SDS011;57725;47.526;18.986;2023-04-03T14:43:23;2.72;;;1.50;;
70313;SDS011;57725;47.526;18.986;2023-04-03T14:45:49;1.65;;;1.00;;
70313;SDS011;57725;47.526;18.986;2023-04-03T14:51:37;1.60;;;1.15;;
70313;SDS011;57725;47.526;18.986;2023-04-03T14:54:02;1.65;;;1.35;;
70313;SDS011;57725;47.526;18.986;2023-04-03T14:56:33;1.55;;;1.10;;
70313;SDS011;57725;47.526;18.986;2023-04-03T14:58:59;2.03;;;1.45;;
70313;SDS011;57725;47.526;18.986;2023-04-03T15:01:34;2.05;;;1.35;;
70313;SDS011;57725;47.526;18.986;2023-04-03T15:04:13;2.15;;;1.45;;
70313;SDS011;57725;47.526;18.986;2023-04-03T15:06:41;2.67;;;1.27;;
70313;SDS011;57725;47.526;18.986;2023-04-03T15:09:14;1.88;;;1.38;;
70313;SDS011;57725;47.526;18.986;2023-04-03T15:11:45;1.80;;;1.42;;
70313;SDS011;57725;47.526;18.986;2023-04-03T15:14:13;1.95;;;1.48;;
70313;SDS011;57725;47.526;18.986;2023-04-03T15:16:38;2.80;;;1.80;;
70313;SDS011;57725;47.526;18.986;2023-04-03T15:19:09;2.17;;;1.20;;
70313;SDS011;57725;47.526;18.986;2023-04-03T15:21:38;1.55;;;0.88;;
70313;SDS011;57725;47.526;18.986;2023-04-03T15:24:08;1.85;;;1.35;;
70313;SDS011;57725;47.526;18.986;2023-04-03T15:26:36;2.15;;;1.50;;
70313;SDS011;57725;47.526;18.986;2023-04-03T15:29:07;1.73;;;1.33;;
70313;SDS011;57725;47.526;18.986;2023-04-03T15:31:32;2.00;;;1.38;;
70313;SDS011;57725;47.526;18.986;2023-04-03T15:33:58;1.95;;;1.35;;
70313;SDS011;57725;47.526;18.986;2023-04-03T15:36:23;1.67;;;1.33;;
70313;SDS011;57725;47.526;18.986;2023-04-03T15:38:48;1.98;;;1.27;;
70313;SDS011;57725;47.526;18.986;2023-04-03T15:41:14;1.50;;;1.20;;
70313;SDS011;57725;47.526;18.986;2023-04-03T15:43:40;1.58;;;1.20;;
70313;SDS011;57725;47.526;18.986;2023-04-03T15:46:07;1.95;;;1.35;;
70313;SDS011;57725;47.526;18.986;2023-04-03T15:48:33;2.00;;;1.40;;
70313;SDS011;57725;47.526;18.986;2023-04-03T15:51:01;2.78;;;1.40;;
70313;SDS011;57725;47.526;18.986;2023-04-03T15:53:31;2.03;;;1.35;;
70313;SDS011;57725;47.526;18.986;2023-04-03T15:55:59;1.70;;;1.50;;
70313;SDS011;57725;47.526;18.986;2023-04-03T15:58:27;2.17;;;1.50;;
70313;SDS011;57725;47.526;18.986;2023-04-03T16:00:55;2.20;;;1.40;;
70313;SDS011;57725;47.526;18.986;2023-04-03T16:03:20;2.25;;;1.80;;
70313;SDS011;57725;47.526;18.986;2023-04-03T16:05:47;1.92;;;1.42;;
70313;SDS011;57725;47.526;18.986;2023-04-03T16:08:13;1.38;;;1.10;;
70313;SDS011;57725;47.526;18.986;2023-04-03T16:10:39;2.25;;;1.38;;
70313;SDS011;57725;47.526;18.986;2023-04-03T16:13:05;2.00;;;1.20;;
70313;SDS011;57725;47.526;18.986;2023-04-03T16:15:31;1.80;;;1.10;;
70313;SDS011;57725;47.526;18.986;2023-04-03T16:17:57;2.22;;;1.20;;
70313;SDS011;57725;47.526;18.986;2023-04-03T16:20:25;2.65;;;1.35;;
70313;SDS011;57725;47.526;18.986;2023-04-03T16:22:52;2.40;;;1.60;;
70313;SDS011;57725;47.526;18.986;2023-04-03T16:25:20;3.95;;;1.60;;
70313;SDS011;57725;47.526;18.986;2023-04-03T16:27:51;2.45;;;1.42;;
70313;SDS011;57725;47.526;18.986;2023-04-03T16:30:16;1.45;;;1.35;;
70313;SDS011;57725;47.526;18.986;2023-04-03T16:32:42;1.80;;;1.20;;
70313;SDS011;57725;47.526;18.986;2023-04-03T16:35:07;2.70;;;1.80;;
70313;SDS011;57725;47.526;18.986;2023-04-03T16:37:36;1.83;;;1.48;;
70313;SDS011;57725;47.526;18.986;2023-04-03T16:40:05;1.92;;;1.33;;
70313;SDS011;57725;47.526;18.986;2023-04-03T16:42:34;2.53;;;1.70;;
70313;SDS011;57725;47.526;18.986;2023-04-03T16:44:59;4.10;;;1.75;;
70313;SDS011;57725;47.526;18.986;2023-04-03T16:47:28;13.35;;;1.67;;
70313;SDS011;57725;47.526;18.986;2023-04-03T16:49:54;14.27;;;2.72;;